sensor_id;sensor_type;location;lat;lon;timestamp;pressure;altitude;pressure_sealevel;temperature;humidity
78675;BME280;67990;59.826;30.108;2023-04-29T00:00:56;101351.09;;;5.59;67.57
78675;BME280;67990;59.826;30.108;2023-04-29T00:03:23;101355.28;;;5.62;67.40
78675;BME280;67990;59.826;30.108;2023-04-29T00:06:12;101356.94;;;5.63;67.36
78675;BME280;67990;59.826;30.108;2023-04-29T00:11:25;101356.69;;;5.67;66.67
78675;BME280;67990;59.826;30.108;2023-04-29T00:13:52;101362.25;;;5.61;66.91
78675;BME280;67990;59.826;30.108;2023-04-29T00:16:32;101365.94;;;5.57;67.02
78675;BME280;67990;59.826;30.108;2023-04-29T00:19:17;101355.72;;;5.54;67.08
78675;BME280;67990;59.826;30.108;2023-04-29T00:21:45;101359.00;;;5.58;66.90
78675;BME280;67990;59.826;30.108;2023-04-29T00:24:47;101360.41;;;5.63;67.29
78675;BME280;67990;59.826;30.108;2023-04-29T00:27:15;101352.44;;;5.66;66.86
78675;BME280;67990;59.826;30.108;2023-04-29T00:29:42;101354.19;;;5.66;67.06
78675;BME280;67990;59.826;30.108;2023-04-29T00:32:09;101358.63;;;5.64;67.25
78675;BME280;67990;59.826;30.108;2023-04-29T00:34:37;101361.50;;;5.59;67.39
78675;BME280;67990;59.826;30.108;2023-04-29T00:37:10;101359.16;;;5.55;67.28
78675;BME280;67990;59.826;30.108;2023-04-29T00:40:20;101359.34;;;5.52;67.16
78675;BME280;67990;59.826;30.108;2023-04-29T00:43:06;101358.00;;;5.45;67.08
78675;BME280;67990;59.826;30.108;2023-04-29T00:45:54;101352.47;;;5.35;67.26
78675;BME280;67990;59.826;30.108;2023-04-29T00:48:22;101352.72;;;5.31;67.15
78675;BME280;67990;59.826;30.108;2023-04-29T00:53:34;101358.38;;;5.23;67.60
78675;BME280;67990;59.826;30.108;2023-04-29T00:56:04;101362.22;;;5.16;67.99
78675;BME280;67990;59.826;30.108;2023-04-29T00:58:32;101361.31;;;5.17;67.65
78675;BME280;67990;59.826;30.108;2023-04-29T01:01:00;101360.38;;;5.18;67.69
78675;BME280;67990;59.826;30.108;2023-04-29T01:03:46;101359.56;;;5.02;67.90
78675;BME280;67990;59.826;30.108;2023-04-29T01:06:22;101358.31;;;4.94;68.27
78675;BME280;67990;59.826;30.108;2023-04-29T01:09:26;101362.22;;;4.85;68.53
78675;BME280;67990;59.826;30.108;2023-04-29T01:12:06;101359.03;;;4.80;68.65
78675;BME280;67990;59.826;30.108;2023-04-29T01:14:36;101357.34;;;4.64;69.55
78675;BME280;67990;59.826;30.108;2023-04-29T01:17:43;101356.25;;;4.68;69.65
78675;BME280;67990;59.826;30.108;2023-04-29T01:20:12;101351.38;;;4.62;69.58
78675;BME280;67990;59.826;30.108;2023-04-29T01:28:39;101358.06;;;4.50;69.52
78675;BME280;67990;59.826;30.108;2023-04-29T01:31:14;101365.59;;;4.39;69.63
78675;BME280;67990;59.826;30.108;2023-04-29T01:33:48;101364.22;;;4.32;70.21
78675;BME280;67990;59.826;30.108;2023-04-29T01:36:23;101362.97;;;4.24;70.37
78675;BME280;67990;59.826;30.108;2023-04-29T01:39:01;101359.72;;;4.19;70.03
78675;BME280;67990;59.826;30.108;2023-04-29T01:41:34;101364.19;;;4.17;70.43
78675;BME280;67990;59.826;30.108;2023-04-29T01:44:19;101367.19;;;4.09;70.41
78675;BME280;67990;59.826;30.108;2023-04-29T01:47:05;101371.75;;;4.04;70.39
78675;BME280;67990;59.826;30.108;2023-04-29T01:49:39;101357.16;;;4.02;70.13
78675;BME280;67990;59.826;30.108;2023-04-29T01:52:06;101365.28;;;3.96;70.64
78675;BME280;67990;59.826;30.108;2023-04-29T01:54:34;101362.75;;;3.94;70.45
78675;BME280;67990;59.826;30.108;2023-04-29T01:57:21;101371.75;;;3.87;70.77
78675;BME280;67990;59.826;30.108;2023-04-29T02:00:26;101364.97;;;3.85;71.06
78675;BME280;67990;59.826;30.108;2023-04-29T02:02:54;101372.91;;;3.82;71.28
78675;BME280;67990;59.826;30.108;2023-04-29T02:05:34;101369.63;;;3.78;71.71
78675;BME280;67990;59.826;30.108;2023-04-29T02:08:01;101376.22;;;3.85;71.92
78675;BME280;67990;59.826;30.108;2023-04-29T02:10:30;101373.44;;;3.88;72.22
78675;BME280;67990;59.826;30.108;2023-04-29T02:13:28;101371.28;;;3.96;72.62
78675;BME280;67990;59.826;30.108;2023-04-29T02:15:55;101370.84;;;4.05;72.75
78675;BME280;67990;59.826;30.108;2023-04-29T02:18:49;101368.00;;;4.10;72.63
78675;BME280;67990;59.826;30.108;2023-04-29T02:21:33;101372.22;;;4.12;72.84
78675;BME280;67990;59.826;30.108;2023-04-29T02:24:00;101363.13;;;4.04;72.71
78675;BME280;67990;59.826;30.108;2023-04-29T02:26:28;101369.84;;;4.08;72.86
78675;BME280;67990;59.826;30.108;2023-04-29T02:28:56;101362.34;;;4.02;72.90
78675;BME280;67990;59.826;30.108;2023-04-29T02:31:43;101366.47;;;4.06;72.76
78675;BME280;67990;59.826;30.108;2023-04-29T02:34:10;101365.72;;;4.04;72.91
78675;BME280;67990;59.826;30.108;2023-04-29T02:36:54;101364.59;;;4.09;73.17
78675;BME280;67990;59.826;30.108;2023-04-29T02:39:21;101369.00;;;4.07;72.96
78675;BME280;67990;59.826;30.108;2023-04-29T02:41:53;101367.94;;;4.11;73.03
78675;BME280;67990;59.826;30.108;2023-04-29T02:44:23;101362.00;;;4.09;72.96
78675;BME280;67990;59.826;30.108;2023-04-29T02:46:50;101354.94;;;4.11;72.67
78675;BME280;67990;59.826;30.108;2023-04-29T02:49:17;101354.59;;;4.17;72.25
78675;BME280;67990;59.826;30.108;2023-04-29T02:51:44;101353.97;;;4.29;72.25
78675;BME280;67990;59.826;30.108;2023-04-29T02:54:14;101355.91;;;4.26;72.51
78675;BME280;67990;59.826;30.108;2023-04-29T02:56:42;101356.91;;;4.23;72.30
78675;BME280;67990;59.826;30.108;2023-04-29T02:59:09;101358.50;;;4.26;72.10
78675;BME280;67990;59.826;30.108;2023-04-29T03:01:56;101373.69;;;4.33;72.32
78675;BME280;67990;59.826;30.108;2023-04-29T03:04:23;101371.81;;;4.37;72.06
78675;BME280;67990;59.826;30.108;2023-04-29T03:06:50;101370.81;;;4.39;72.20
78675;BME280;67990;59.826;30.108;2023-04-29T03:09:36;101378.41;;;4.59;71.70
78675;BME280;67990;59.826;30.108;2023-04-29T03:12:20;101377.06;;;4.68;71.64
78675;BME280;67990;59.826;30.108;2023-04-29T03:14:47;101379.88;;;4.80;71.41
78675;BME280;67990;59.826;30.108;2023-04-29T03:17:16;101377.47;;;5.08;71.25
78675;BME280;67990;59.826;30.108;2023-04-29T03:22:48;101367.47;;;5.61;69.33
78675;BME280;67990;59.826;30.108;2023-04-29T03:25:15;101372.25;;;5.98;68.39
78675;BME280;67990;59.826;30.108;2023-04-29T03:27:42;101371.28;;;6.29;68.17
78675;BME280;67990;59.826;30.108;2023-04-29T03:32:58;101371.53;;;7.88;63.80
78675;BME280;67990;59.826;30.108;2023-04-29T03:35:27;101368.03;;;8.77;61.68
78675;BME280;67990;59.826;30.108;2023-04-29T03:38:13;101361.78;;;9.50;58.88
78675;BME280;67990;59.826;30.108;2023-04-29T03:40:41;101365.41;;;8.64;58.98
78675;BME280;67990;59.826;30.108;2023-04-29T03:43:10;101370.75;;;8.63;59.40
78675;BME280;67990;59.826;30.108;2023-04-29T03:45:38;101368.28;;;8.97;59.03
78675;BME280;67990;59.826;30.108;2023-04-29T03:48:07;101371.91;;;8.71;58.86
78675;BME280;67990;59.826;30.108;2023-04-29T03:50:53;101373.84;;;8.05;59.61
78675;BME280;67990;59.826;30.108;2023-04-29T03:53:20;101376.91;;;7.73;60.70
78675;BME280;67990;59.826;30.108;2023-04-29T03:59:11;101375.47;;;7.16;62.52
78675;BME280;67990;59.826;30.108;2023-04-29T04:01:40;101376.44;;;7.54;62.22
78675;BME280;67990;59.826;30.108;2023-04-29T04:04:44;101367.69;;;9.64;59.46
78675;BME280;67990;59.826;30.108;2023-04-29T04:07:11;101366.13;;;11.93;54.20
78675;BME280;67990;59.826;30.108;2023-04-29T04:09:58;101355.75;;;13.89;47.46
78675;BME280;67990;59.826;30.108;2023-04-29T04:15:12;101357.41;;;15.19;40.80
78675;BME280;67990;59.826;30.108;2023-04-29T04:17:39;101365.03;;;12.97;44.31
78675;BME280;67990;59.826;30.108;2023-04-29T04:20:09;101367.72;;;10.99;48.56
78675;BME280;67990;59.826;30.108;2023-04-29T04:22:54;101365.19;;;11.20;49.69
78675;BME280;67990;59.826;30.108;2023-04-29T04:25:46;101364.16;;;10.56;51.20
78675;BME280;67990;59.826;30.108;2023-04-29T04:28:40;101367.59;;;11.86;49.88
78675;BME280;67990;59.826;30.108;2023-04-29T04:31:11;101350.16;;;13.92;44.84
78675;BME280;67990;59.826;30.108;2023-04-29T04:33:40;101346.41;;;15.93;40.74
78675;BME280;67990;59.826;30.108;2023-04-29T04:36:08;101348.00;;;17.30;37.20
78675;BME280;67990;59.826;30.108;2023-04-29T04:38:35;101331.63;;;18.15;35.57
78675;BME280;67990;59.826;30.108;2023-04-29T04:41:21;101358.81;;;18.73;33.91
78675;BME280;67990;59.826;30.108;2023-04-29T04:43:49;101349.22;;;19.33;33.33
78675;BME280;67990;59.826;30.108;2023-04-29T04:46:24;101347.50;;;19.40;31.56
78675;BME280;67990;59.826;30.108;2023-04-29T04:51:59;101336.03;;;20.21;29.46
78675;BME280;67990;59.826;30.108;2023-04-29T04:54:48;101345.56;;;19.56;29.86
78675;BME280;67990;59.826;30.108;2023-04-29T04:57:20;101338.00;;;20.27;29.69
78675;BME280;67990;59.826;30.108;2023-04-29T04:59:48;101333.84;;;19.43;29.94
78675;BME280;67990;59.826;30.108;2023-04-29T05:02:16;101330.97;;;18.83;30.97
78675;BME280;67990;59.826;30.108;2023-04-29T05:04:43;101337.94;;;17.58;32.63
78675;BME280;67990;59.826;30.108;2023-04-29T05:07:52;101339.94;;;15.26;37.15
78675;BME280;67990;59.826;30.108;2023-04-29T05:10:25;101352.47;;;14.43;38.97
78675;BME280;67990;59.826;30.108;2023-04-29T05:12:55;101336.06;;;14.39;40.05
78675;BME280;67990;59.826;30.108;2023-04-29T05:18:27;101340.75;;;17.48;35.59
78675;BME280;67990;59.826;30.108;2023-04-29T05:21:13;101329.81;;;19.47;31.99
78675;BME280;67990;59.826;30.108;2023-04-29T05:23:42;101327.72;;;18.57;32.28
78675;BME280;67990;59.826;30.108;2023-04-29T05:26:09;101343.63;;;16.72;34.69
78675;BME280;67990;59.826;30.108;2023-04-29T05:28:36;101342.16;;;14.86;38.42
78675;BME280;67990;59.826;30.108;2023-04-29T05:31:21;101348.75;;;13.88;40.92
78675;BME280;67990;59.826;30.108;2023-04-29T05:34:06;101349.44;;;12.84;42.32
78675;BME280;67990;59.826;30.108;2023-04-29T05:36:34;101354.72;;;12.54;43.38
78675;BME280;67990;59.826;30.108;2023-04-29T05:39:21;101349.88;;;11.68;45.69
78675;BME280;67990;59.826;30.108;2023-04-29T05:41:57;101352.94;;;11.41;46.58
78675;BME280;67990;59.826;30.108;2023-04-29T05:44:34;101359.59;;;10.47;48.13
78675;BME280;67990;59.826;30.108;2023-04-29T05:47:20;101361.03;;;9.95;50.31
78675;BME280;67990;59.826;30.108;2023-04-29T05:53:13;101365.81;;;10.01;51.09
78675;BME280;67990;59.826;30.108;2023-04-29T05:55:42;101355.81;;;9.71;51.57
78675;BME280;67990;59.826;30.108;2023-04-29T06:03:41;101371.25;;;8.93;54.66
78675;BME280;67990;59.826;30.108;2023-04-29T06:06:27;101384.50;;;8.66;55.82
78675;BME280;67990;59.826;30.108;2023-04-29T06:09:07;101378.91;;;8.83;55.73
78675;BME280;67990;59.826;30.108;2023-04-29T06:14:22;101373.28;;;8.52;55.77
78675;BME280;67990;59.826;30.108;2023-04-29T06:16:51;101380.94;;;8.42;57.14
78675;BME280;67990;59.826;30.108;2023-04-29T06:19:18;101380.59;;;8.59;56.73
78675;BME280;67990;59.826;30.108;2023-04-29T06:22:05;101378.91;;;8.71;55.38
78675;BME280;67990;59.826;30.108;2023-04-29T06:24:33;101386.06;;;8.69;55.50
78675;BME280;67990;59.826;30.108;2023-04-29T06:27:02;101391.16;;;8.95;54.96
78675;BME280;67990;59.826;30.108;2023-04-29T06:29:48;101386.91;;;9.18;55.66
78675;BME280;67990;59.826;30.108;2023-04-29T06:32:15;101381.56;;;9.43;54.04
78675;BME280;67990;59.826;30.108;2023-04-29T06:35:03;101387.84;;;9.87;52.67
78675;BME280;67990;59.826;30.108;2023-04-29T06:38:11;101389.63;;;9.87;52.37
78675;BME280;67990;59.826;30.108;2023-04-29T06:40:41;101379.78;;;10.01;52.84
78675;BME280;67990;59.826;30.108;2023-04-29T06:43:32;101386.84;;;9.54;52.73
78675;BME280;67990;59.826;30.108;2023-04-29T06:46:26;101393.63;;;9.69;52.37
78675;BME280;67990;59.826;30.108;2023-04-29T06:49:20;101389.47;;;9.54;52.94
78675;BME280;67990;59.826;30.108;2023-04-29T06:51:48;101394.22;;;9.49;53.16
78675;BME280;67990;59.826;30.108;2023-04-29T06:54:34;101399.31;;;9.03;53.62
78675;BME280;67990;59.826;30.108;2023-04-29T06:57:01;101393.66;;;8.97;54.62
78675;BME280;67990;59.826;30.108;2023-04-29T06:59:30;101399.47;;;9.13;55.04
78675;BME280;67990;59.826;30.108;2023-04-29T07:02:14;101400.56;;;9.34;53.79
78675;BME280;67990;59.826;30.108;2023-04-29T07:04:41;101393.00;;;9.65;52.41
78675;BME280;67990;59.826;30.108;2023-04-29T07:07:08;101399.94;;;9.66;51.98
78675;BME280;67990;59.826;30.108;2023-04-29T07:09:35;101400.13;;;9.63;52.49
78675;BME280;67990;59.826;30.108;2023-04-29T07:12:20;101397.28;;;9.90;51.65
78675;BME280;67990;59.826;30.108;2023-04-29T07:14:48;101396.34;;;10.25;50.88
78675;BME280;67990;59.826;30.108;2023-04-29T07:17:18;101385.88;;;11.67;47.98
78675;BME280;67990;59.826;30.108;2023-04-29T07:19:45;101396.41;;;12.70;45.27
78675;BME280;67990;59.826;30.108;2023-04-29T07:22:13;101397.94;;;12.72;44.96
78675;BME280;67990;59.826;30.108;2023-04-29T07:24:58;101402.75;;;12.88;44.17
78675;BME280;67990;59.826;30.108;2023-04-29T07:27:26;101400.88;;;13.48;42.14
78675;BME280;67990;59.826;30.108;2023-04-29T07:29:55;101408.59;;;12.91;42.39
78675;BME280;67990;59.826;30.108;2023-04-29T07:32:22;101401.16;;;13.45;41.30
78675;BME280;67990;59.826;30.108;2023-04-29T07:34:49;101410.53;;;12.89;42.26
78675;BME280;67990;59.826;30.108;2023-04-29T07:37:17;101416.22;;;13.15;42.23
78675;BME280;67990;59.826;30.108;2023-04-29T07:40:03;101408.41;;;13.62;39.28
78675;BME280;67990;59.826;30.108;2023-04-29T07:42:50;101412.47;;;13.17;39.29
78675;BME280;67990;59.826;30.108;2023-04-29T07:45:18;101415.31;;;12.75;39.66
78675;BME280;67990;59.826;30.108;2023-04-29T07:47:45;101410.94;;;12.14;41.03
78675;BME280;67990;59.826;30.108;2023-04-29T07:50:13;101411.09;;;11.81;42.58
78675;BME280;67990;59.826;30.108;2023-04-29T07:52:59;101415.69;;;11.99;42.41
78675;BME280;67990;59.826;30.108;2023-04-29T07:55:26;101409.13;;;12.14;41.63
78675;BME280;67990;59.826;30.108;2023-04-29T08:00:42;101404.50;;;16.73;34.83
78675;BME280;67990;59.826;30.108;2023-04-29T08:03:09;101391.28;;;18.28;31.21
78675;BME280;67990;59.826;30.108;2023-04-29T08:05:36;101392.94;;;17.81;30.47
78675;BME280;67990;59.826;30.108;2023-04-29T08:08:22;101406.56;;;16.87;31.47
78675;BME280;67990;59.826;30.108;2023-04-29T08:10:50;101422.16;;;15.24;35.03
78675;BME280;67990;59.826;30.108;2023-04-29T08:13:17;101451.69;;;13.01;40.72
78675;BME280;67990;59.826;30.108;2023-04-29T08:16:05;101461.38;;;11.98;45.59
78675;BME280;67990;59.826;30.108;2023-04-29T08:18:34;101459.88;;;11.09;48.78
78675;BME280;67990;59.826;30.108;2023-04-29T08:21:01;101452.25;;;10.38;51.22
78675;BME280;67990;59.826;30.108;2023-04-29T08:23:29;101461.72;;;10.52;52.08
78675;BME280;67990;59.826;30.108;2023-04-29T08:26:15;101465.22;;;10.29;53.54
78675;BME280;67990;59.826;30.108;2023-04-29T08:28:42;101472.03;;;9.61;54.92
78675;BME280;67990;59.826;30.108;2023-04-29T08:31:16;101478.50;;;9.32;56.28
78675;BME280;67990;59.826;30.108;2023-04-29T08:33:43;101471.09;;;9.26;56.71
78675;BME280;67990;59.826;30.108;2023-04-29T08:36:47;101472.91;;;10.08;57.36
78675;BME280;67990;59.826;30.108;2023-04-29T08:39:32;101461.25;;;12.00;54.42
78675;BME280;67990;59.826;30.108;2023-04-29T08:42:07;101463.19;;;14.17;50.24
78675;BME280;67990;59.826;30.108;2023-04-29T08:44:52;101465.91;;;16.00;47.16
78675;BME280;67990;59.826;30.108;2023-04-29T08:47:39;101454.28;;;16.79;41.89
78675;BME280;67990;59.826;30.108;2023-04-29T08:50:08;101458.91;;;17.03;41.85
78675;BME280;67990;59.826;30.108;2023-04-29T08:52:35;101462.13;;;15.85;43.58
78675;BME280;67990;59.826;30.108;2023-04-29T08:55:03;101456.13;;;15.38;44.19
78675;BME280;67990;59.826;30.108;2023-04-29T08:57:32;101467.66;;;13.98;45.38
78675;BME280;67990;59.826;30.108;2023-04-29T09:00:06;101477.38;;;12.99;46.88
78675;BME280;67990;59.826;30.108;2023-04-29T09:05:40;101483.69;;;10.51;52.96
78675;BME280;67990;59.826;30.108;2023-04-29T09:08:08;101491.72;;;10.26;54.03
78675;BME280;67990;59.826;30.108;2023-04-29T09:11:11;101496.53;;;9.72;56.19
78675;BME280;67990;59.826;30.108;2023-04-29T09:13:58;101492.50;;;9.92;57.20
78675;BME280;67990;59.826;30.108;2023-04-29T09:16:45;101480.91;;;10.87;57.05
78675;BME280;67990;59.826;30.108;2023-04-29T09:19:28;101475.63;;;11.96;54.65
78675;BME280;67990;59.826;30.108;2023-04-29T09:22:15;101484.94;;;13.43;52.25
78675;BME280;67990;59.826;30.108;2023-04-29T09:25:11;101478.66;;;15.52;47.71
78675;BME280;67990;59.826;30.108;2023-04-29T09:27:38;101478.88;;;16.20;44.49
78675;BME280;67990;59.826;30.108;2023-04-29T09:30:23;101476.91;;;17.17;41.34
78675;BME280;67990;59.826;30.108;2023-04-29T09:33:05;101481.78;;;16.96;40.31
78675;BME280;67990;59.826;30.108;2023-04-29T09:35:33;101479.38;;;17.44;39.75
78675;BME280;67990;59.826;30.108;2023-04-29T09:38:12;101482.44;;;16.47;40.43
78675;BME280;67990;59.826;30.108;2023-04-29T09:40:40;101480.00;;;15.19;42.65
78675;BME280;67990;59.826;30.108;2023-04-29T09:43:27;101492.84;;;14.40;43.58
78675;BME280;67990;59.826;30.108;2023-04-29T09:46:13;101482.06;;;14.89;43.03
78675;BME280;67990;59.826;30.108;2023-04-29T09:48:40;101494.47;;;14.88;43.16
78675;BME280;67990;59.826;30.108;2023-04-29T09:51:07;101491.25;;;14.94;41.90
78675;BME280;67990;59.826;30.108;2023-04-29T09:53:55;101485.13;;;16.19;40.67
78675;BME280;67990;59.826;30.108;2023-04-29T09:56:22;101488.03;;;16.43;37.60
78675;BME280;67990;59.826;30.108;2023-04-29T09:58:53;101487.91;;;15.83;37.96
78675;BME280;67990;59.826;30.108;2023-04-29T10:01:22;101487.91;;;16.71;37.30
78675;BME280;67990;59.826;30.108;2023-04-29T10:03:52;101493.97;;;15.75;37.16
78675;BME280;67990;59.826;30.108;2023-04-29T10:06:22;101493.84;;;15.50;36.11
78675;BME280;67990;59.826;30.108;2023-04-29T10:08:51;101487.94;;;14.83;37.60
78675;BME280;67990;59.826;30.108;2023-04-29T10:11:39;101491.72;;;14.52;39.36
78675;BME280;67990;59.826;30.108;2023-04-29T10:14:25;101496.63;;;14.47;41.19
78675;BME280;67990;59.826;30.108;2023-04-29T10:16:58;101501.78;;;15.13;41.46
78675;BME280;67990;59.826;30.108;2023-04-29T10:19:33;101504.47;;;15.31;41.26
78675;BME280;67990;59.826;30.108;2023-04-29T10:22:06;101508.44;;;14.62;41.86
78675;BME280;67990;59.826;30.108;2023-04-29T10:24:35;101521.34;;;13.98;41.68
78675;BME280;67990;59.826;30.108;2023-04-29T10:27:06;101514.97;;;13.52;42.60
78675;BME280;67990;59.826;30.108;2023-04-29T10:29:35;101516.28;;;13.27;43.23
78675;BME280;67990;59.826;30.108;2023-04-29T10:32:06;101527.63;;;12.77;43.49
78675;BME280;67990;59.826;30.108;2023-04-29T10:34:36;101520.47;;;12.89;42.38
78675;BME280;67990;59.826;30.108;2023-04-29T10:37:04;101522.59;;;12.74;42.64
78675;BME280;67990;59.826;30.108;2023-04-29T10:39:38;101522.66;;;12.63;43.15
78675;BME280;67990;59.826;30.108;2023-04-29T10:42:16;101524.41;;;12.94;43.01
78675;BME280;67990;59.826;30.108;2023-04-29T10:48:12;101528.88;;;12.83;43.43
78675;BME280;67990;59.826;30.108;2023-04-29T10:50:58;101526.72;;;13.08;44.56
78675;BME280;67990;59.826;30.108;2023-04-29T10:54:00;101525.34;;;12.93;43.11
78675;BME280;67990;59.826;30.108;2023-04-29T10:56:38;101524.63;;;13.12;42.40
78675;BME280;67990;59.826;30.108;2023-04-29T10:59:45;101529.06;;;12.91;42.79
78675;BME280;67990;59.826;30.108;2023-04-29T11:02:13;101530.19;;;13.09;42.57
78675;BME280;67990;59.826;30.108;2023-04-29T11:07:44;101530.25;;;13.48;38.69
78675;BME280;67990;59.826;30.108;2023-04-29T11:10:50;101530.50;;;13.45;39.59
78675;BME280;67990;59.826;30.108;2023-04-29T11:13:23;101523.59;;;13.24;39.95
78675;BME280;67990;59.826;30.108;2023-04-29T11:15:51;101532.66;;;13.01;41.15
78675;BME280;67990;59.826;30.108;2023-04-29T11:18:19;101536.16;;;12.70;40.76
78675;BME280;67990;59.826;30.108;2023-04-29T11:21:11;101541.63;;;12.57;40.16
78675;BME280;67990;59.826;30.108;2023-04-29T11:23:40;101538.41;;;12.95;42.34
78675;BME280;67990;59.826;30.108;2023-04-29T11:26:28;101528.69;;;13.16;41.80
78675;BME280;67990;59.826;30.108;2023-04-29T11:28:56;101542.47;;;13.19;42.06
78675;BME280;67990;59.826;30.108;2023-04-29T11:34:34;101534.94;;;12.94;41.67
78675;BME280;67990;59.826;30.108;2023-04-29T11:37:01;101536.75;;;12.94;41.07
78675;BME280;67990;59.826;30.108;2023-04-29T11:39:32;101549.34;;;12.90;41.22
78675;BME280;67990;59.826;30.108;2023-04-29T11:42:04;101544.31;;;12.98;40.96
78675;BME280;67990;59.826;30.108;2023-04-29T11:44:33;101534.75;;;12.86;41.31
78675;BME280;67990;59.826;30.108;2023-04-29T11:49:30;101545.56;;;12.63;40.99
78675;BME280;67990;59.826;30.108;2023-04-29T11:51:58;101553.50;;;12.52;41.39
78675;BME280;67990;59.826;30.108;2023-04-29T11:54:43;101552.88;;;12.59;42.15
78675;BME280;67990;59.826;30.108;2023-04-29T11:57:13;101550.25;;;12.80;42.25
78675;BME280;67990;59.826;30.108;2023-04-29T11:59:59;101554.88;;;12.87;40.94
78675;BME280;67990;59.826;30.108;2023-04-29T12:02:31;101549.44;;;13.00;40.83
78675;BME280;67990;59.826;30.108;2023-04-29T12:05:17;101550.31;;;12.69;41.54
78675;BME280;67990;59.826;30.108;2023-04-29T12:07:45;101554.50;;;12.92;41.37
78675;BME280;67990;59.826;30.108;2023-04-29T12:10:29;101550.28;;;13.00;40.73
78675;BME280;67990;59.826;30.108;2023-04-29T12:12:58;101554.31;;;13.04;39.62
78675;BME280;67990;59.826;30.108;2023-04-29T12:15:25;101552.09;;;12.68;40.16
78675;BME280;67990;59.826;30.108;2023-04-29T12:18:14;101553.41;;;12.94;41.21
78675;BME280;67990;59.826;30.108;2023-04-29T12:20:41;101551.53;;;12.85;39.88
78675;BME280;67990;59.826;30.108;2023-04-29T12:23:11;101557.16;;;12.92;38.85
78675;BME280;67990;59.826;30.108;2023-04-29T12:25:39;101562.88;;;13.17;38.12
78675;BME280;67990;59.826;30.108;2023-04-29T12:28:11;101551.09;;;13.21;39.68
78675;BME280;67990;59.826;30.108;2023-04-29T12:30:58;101555.19;;;12.94;39.31
78675;BME280;67990;59.826;30.108;2023-04-29T12:33:28;101551.81;;;12.82;38.26
78675;BME280;67990;59.826;30.108;2023-04-29T12:35:57;101559.59;;;13.25;37.78
78675;BME280;67990;59.826;30.108;2023-04-29T12:38:25;101556.53;;;13.29;36.08
78675;BME280;67990;59.826;30.108;2023-04-29T12:40:53;101563.59;;;13.19;36.11
78675;BME280;67990;59.826;30.108;2023-04-29T12:43:40;101554.88;;;13.28;36.71
78675;BME280;67990;59.826;30.108;2023-04-29T12:46:09;101556.34;;;13.42;36.82
78675;BME280;67990;59.826;30.108;2023-04-29T12:48:40;101558.34;;;13.59;36.73
78675;BME280;67990;59.826;30.108;2023-04-29T12:51:08;101562.66;;;13.30;37.48
78675;BME280;67990;59.826;30.108;2023-04-29T12:53:36;101557.38;;;13.30;36.73
78675;BME280;67990;59.826;30.108;2023-04-29T12:56:04;101560.41;;;13.25;36.97
78675;BME280;67990;59.826;30.108;2023-04-29T12:58:31;101557.50;;;13.28;36.72
78675;BME280;67990;59.826;30.108;2023-04-29T13:01:16;101557.97;;;12.92;37.43
78675;BME280;67990;59.826;30.108;2023-04-29T13:03:45;101566.09;;;13.00;37.15
78675;BME280;67990;59.826;30.108;2023-04-29T13:06:12;101563.47;;;13.00;35.83
78675;BME280;67990;59.826;30.108;2023-04-29T13:08:39;101563.75;;;12.86;36.58
78675;BME280;67990;59.826;30.108;2023-04-29T13:11:06;101564.00;;;12.83;37.51
78675;BME280;67990;59.826;30.108;2023-04-29T13:13:33;101558.22;;;12.69;39.03
78675;BME280;67990;59.826;30.108;2023-04-29T13:16:01;101558.13;;;12.59;37.19
78675;BME280;67990;59.826;30.108;2023-04-29T13:18:47;101568.47;;;12.51;37.30
78675;BME280;67990;59.826;30.108;2023-04-29T13:21:14;101564.13;;;12.61;36.81
78675;BME280;67990;59.826;30.108;2023-04-29T13:23:41;101565.75;;;12.73;36.12
78675;BME280;67990;59.826;30.108;2023-04-29T13:26:09;101565.50;;;12.97;36.33
78675;BME280;67990;59.826;30.108;2023-04-29T13:28:37;101587.06;;;13.22;36.87
78675;BME280;67990;59.826;30.108;2023-04-29T13:31:04;101571.88;;;13.35;35.36
78675;BME280;67990;59.826;30.108;2023-04-29T13:33:32;101579.91;;;13.13;35.29
78675;BME280;67990;59.826;30.108;2023-04-29T13:36:02;101584.22;;;12.73;36.74
78675;BME280;67990;59.826;30.108;2023-04-29T13:38:30;101577.59;;;12.47;37.00
78675;BME280;67990;59.826;30.108;2023-04-29T13:40:58;101575.63;;;12.60;36.14
78675;BME280;67990;59.826;30.108;2023-04-29T13:46:29;101591.78;;;12.35;37.01
78675;BME280;67990;59.826;30.108;2023-04-29T13:48:57;101581.72;;;12.40;37.34
78675;BME280;67990;59.826;30.108;2023-04-29T13:51:26;101584.91;;;12.75;35.66
78675;BME280;67990;59.826;30.108;2023-04-29T13:53:53;101591.59;;;12.79;33.68
78675;BME280;67990;59.826;30.108;2023-04-29T13:56:21;101595.28;;;12.56;34.57
78675;BME280;67990;59.826;30.108;2023-04-29T13:58:50;101585.56;;;12.36;35.57
78675;BME280;67990;59.826;30.108;2023-04-29T14:01:17;101595.28;;;12.25;35.54
78675;BME280;67990;59.826;30.108;2023-04-29T14:04:03;101587.88;;;12.61;35.97
78675;BME280;67990;59.826;30.108;2023-04-29T14:06:32;101585.28;;;12.71;34.58
78675;BME280;67990;59.826;30.108;2023-04-29T14:09:01;101587.88;;;12.82;36.32
78675;BME280;67990;59.826;30.108;2023-04-29T14:11:29;101582.72;;;12.80;36.90
78675;BME280;67990;59.826;30.108;2023-04-29T14:14:01;101585.22;;;12.61;35.32
78675;BME280;67990;59.826;30.108;2023-04-29T14:19:14;101592.84;;;12.44;35.47
78675;BME280;67990;59.826;30.108;2023-04-29T14:21:42;101590.31;;;12.42;34.99
78675;BME280;67990;59.826;30.108;2023-04-29T14:24:10;101598.09;;;12.44;35.59
78675;BME280;67990;59.826;30.108;2023-04-29T14:26:55;101600.00;;;12.53;35.13